Hauptseite
METAR-TAF:

METAR-TAF

Flughäfen :

Wonderboom Airport

Pretoria, Südafrika

Breite: 25-39S, Länge: 028-13E, Höhe: 1248 m

Beobachtung

Neuester Wetterbericht von vor 53 Minuten, um 22:00 UTC
Wind 2 kt aus Ost/Südost
Temperatur 19°C
Luftfeuchtigkeit 83%
Luftdruck 1018 hPa

METAR: FAWB 252200Z AUTO 11002KT //// // ////// 19/16 Q1018

Zeit: 00:53 (22:53 UTC)

Prognose

Neuester Wetterbericht von vor 13 Stunden und 53 Minuten, um 09:00 UTC
Gültige Prognose vom 25 um 10 UTC bis 25 um 18 UTC
Wind 12 kt aus Südwest
Sichtweite 10 km oder mehr
Aufgelockert bewölkt in der Höhe von 3500 ft
Wahrscheinlichkeit 30% :
Zeitweise
vom 25 um 13 UTC bis 25 um 16 UTC
Leicht bewölkt in der Höhe von 3500 ft, Kumulonimbus.
Gewitter, Leichtregen,

TAF: FAWB 250900Z 2510/2518 22012KT 9999 SCT035 TX33/2513Z TN26/2518Z PROB30 TEMPO 2513/2516 -TSRA FEW035CB

Wetterbeobachtungen und Prognosen von mehr als 4000 Flughäfen (METAR und TAF Bericht).

Die verfügbaren Stationen werden durch gelbe und rote Markierungen auf der Karte dargestellt.

Führen Sie die Maus auf sie, um den Namen der Station zu sehen.

Darauf klicken, um die Beobachtung von Wetterbeobachtungen und Prognosen zu sehen.

Um die Karte zu ändern : klicken Sie auf den grünen Tasten mit einem schwarzen Kreuz Zum Vergrößern, auf den grünen Button mit einem Gedankenstrich zu verkleinern, oder auf die grünen Pfeile für benachbarte Karten.


METAR-TAF: